Terminal Aerodrome Forecast
Issued by NWS Upton, NY

Current Version | Previous Version | Text Only | Print | Product List | Glossary On
Versions: 1 2 3 4 5 6 7 8 9 10 11 12 13 14 15 16 17 18 19 20 21 22 23 24
000
FTUS41 KOKX 280500
TAFJFK
TAF
KJFK 280534Z 2806/2912 22006KT P6SM BKN080 BKN250
     FM281200 26008KT 6SM -SHRA BR SCT030 OVC050
     FM281800 27008KT 6SM -SHRA BR BKN030 OVC050
     FM282300 31008KT P6SM SCT030 BKN050
     FM290300 33010KT P6SM SCT040 BKN100
     FM290600 32007KT P6SM FEW040 SCT250=

USA.gov is the U.S. government's official web portal to all federal, state and local government web resources and services.